createdAt,value
2019-01-06T00:00:13.771Z,11.33
2019-01-06T00:03:18.725Z,11.10
2019-01-06T00:06:06.985Z,10.00
2019-01-06T00:09:02.438Z,11.07
2019-01-06T00:11:56.720Z,10.17
2019-01-06T00:14:49.941Z,9.57
2019-01-06T00:17:46.604Z,9.57
2019-01-06T00:20:35.174Z,9.30
2019-01-06T00:23:39.838Z,9.57
2019-01-06T00:26:38.230Z,10.00
2019-01-06T00:29:33.676Z,10.57
2019-01-06T00:32:38.289Z,10.37
2019-01-06T00:35:33.210Z,11.37
2019-01-06T00:38:21.420Z,10.57
2019-01-06T00:41:13.731Z,10.80
2019-01-06T00:43:59.671Z,8.57
2019-01-06T00:46:47.953Z,8.43
2019-01-06T00:49:36.062Z,8.00
2019-01-06T00:52:28.724Z,7.57
2019-01-06T00:55:25.646Z,7.80
2019-01-06T00:58:13.857Z,6.57
2019-01-06T07:27:09.193Z,8.90
2019-01-06T07:30:07.946Z,8.83
2019-01-06T07:33:00.538Z,6.80
2019-01-06T07:35:49.029Z,6.03
2019-01-06T07:38:41.481Z,6.37
2019-01-06T07:41:31.080Z,6.20
2019-01-06T07:44:19.571Z,7.50
2019-01-06T07:47:07.171Z,7.07
2019-01-06T07:50:11.695Z,5.93
2019-01-06T07:52:59.816Z,5.60
2019-01-06T07:55:48.155Z,5.70
2019-01-06T07:58:32.257Z,5.90
2019-01-06T08:01:31.091Z,6.73
2019-01-06T08:04:19.748Z,11.47
2019-01-06T08:07:06.380Z,16.53
2019-01-06T08:10:04.861Z,44.17
2019-01-06T08:12:50.960Z,13.50
2019-01-06T08:15:39.605Z,13.13
2019-01-06T08:18:29.182Z,9.33
2019-01-06T08:21:27.076Z,9.63
2019-01-06T08:24:16.685Z,9.13
2019-01-06T08:27:15.148Z,8.83
2019-01-06T08:30:03.699Z,9.47
2019-01-06T08:32:56.080Z,7.87
2019-01-06T08:35:44.310Z,9.57
2019-01-06T08:38:42.832Z,7.07
2019-01-06T08:41:25.991Z,10.23
2019-01-06T08:44:31.156Z,8.80
2019-01-06T08:47:19.546Z,9.17
2019-01-06T08:50:21.533Z,9.97
2019-01-06T08:53:11.810Z,9.80
2019-01-06T08:56:07.222Z,8.47
2019-01-06T08:59:12.077Z,9.10
2019-01-06T09:02:17.051Z,10.07
2019-01-06T09:05:06.672Z,13.80
2019-01-06T09:07:52.561Z,12.60
2019-01-06T09:10:36.633Z,7.87
2019-01-06T09:13:17.161Z,8.27
2019-01-06T09:16:05.730Z,8.67
2019-01-06T09:19:07.343Z,6.90
2019-01-06T09:22:12.348Z,6.43
2019-01-06T09:25:00.289Z,6.20
2019-01-06T09:27:48.528Z,6.50
2019-01-06T09:30:47.001Z,4.93
2019-01-06T09:33:35.473Z,4.67
2019-01-06T09:36:25.722Z,4.70
2019-01-06T09:39:30.567Z,4.73
2019-01-06T09:42:20.223Z,4.40
2019-01-06T09:45:21.504Z,4.53
2019-01-06T09:48:08.271Z,5.40
2019-01-06T09:51:00.322Z,5.20
2019-01-06T09:53:57.984Z,4.53
2019-01-06T09:57:04.662Z,4.30
2019-01-06T09:59:52.939Z,3.87
2019-01-06T10:02:57.434Z,4.77
2019-01-06T10:05:55.806Z,4.80
2019-01-06T10:09:01.978Z,4.00
2019-01-06T10:11:51.643Z,4.03
2019-01-06T10:14:42.054Z,3.90
2019-01-06T10:17:41.706Z,4.03
2019-01-06T10:20:34.189Z,3.30
2019-01-06T10:23:22.988Z,3.93
2019-01-06T10:26:15.409Z,4.93
2019-01-06T10:29:23.207Z,4.40
2019-01-06T10:32:22.417Z,5.27
2019-01-06T10:35:17.760Z,4.40
2019-01-06T10:38:06.079Z,5.10
2019-01-06T10:40:58.445Z,5.00
2019-01-06T10:43:48.031Z,4.90
2019-01-06T10:46:37.563Z,5.70
2019-01-06T10:49:23.442Z,6.37
2019-01-06T10:52:29.769Z,5.90
2019-01-06T10:55:18.537Z,5.90
2019-01-06T10:58:09.199Z,24.73
2019-01-06T11:01:12.152Z,16.57
2019-01-06T11:04:20.098Z,27.17
2019-01-06T11:07:28.243Z,22.20
2019-01-06T11:10:12.532Z,27.07
2019-01-06T11:13:02.143Z,9.93
2019-01-06T11:16:00.496Z,8.67
2019-01-06T11:18:49.096Z,8.03
2019-01-06T11:21:41.738Z,10.70
2019-01-06T11:24:31.359Z,11.53
2019-01-06T11:27:23.699Z,8.30
2019-01-06T11:30:12.259Z,9.10
2019-01-06T11:33:08.751Z,10.00
2019-01-06T11:36:00.484Z,10.47
2019-01-06T11:38:48.953Z,11.50
2019-01-06T11:41:41.315Z,12.20
2019-01-06T11:44:30.918Z,11.57
2019-01-06T11:47:29.299Z,11.13
2019-01-06T11:50:28.482Z,10.73
2019-01-06T11:53:18.012Z,10.73
2019-01-06T12:07:15.704Z,12.60
2019-01-06T12:10:03.945Z,9.30
2019-01-06T12:13:12.020Z,10.13
2019-01-06T12:15:59.040Z,9.40
2019-01-06T12:18:51.412Z,10.17
2019-01-06T12:21:56.067Z,10.00
2019-01-06T12:25:03.942Z,9.47
2019-01-06T12:28:05.706Z,8.63
2019-01-06T12:31:11.125Z,9.27
2019-01-06T12:34:09.642Z,9.30
2019-01-06T12:37:11.255Z,10.37
2019-01-06T12:40:03.697Z,10.73
2019-01-06T12:42:55.618Z,10.60
2019-01-06T12:45:34.227Z,10.87
2019-01-06T12:48:23.756Z,10.80
2019-01-06T12:51:28.712Z,10.37
2019-01-06T12:54:17.001Z,10.93
2019-01-06T12:57:05.153Z,11.90
2019-01-06T12:59:53.853Z,10.77
2019-01-06T13:02:42.104Z,31.13
2019-01-06T13:05:30.214Z,23.30
2019-01-06T13:08:22.609Z,12.17
2019-01-06T13:11:25.959Z,12.87
2019-01-06T13:14:21.433Z,12.47
2019-01-06T13:17:16.283Z,16.93
2019-01-06T13:20:04.478Z,12.73
2019-01-06T13:22:52.812Z,19.47
2019-01-06T13:25:41.113Z,11.60
2019-01-06T13:28:29.704Z,10.03
2019-01-06T13:31:28.556Z,10.80
2019-01-06T13:34:25.939Z,10.03
2019-01-06T13:37:14.504Z,11.13
2019-01-06T13:40:02.711Z,9.70
2019-01-06T13:43:07.885Z,12.40
2019-01-06T13:46:03.795Z,18.30
2019-01-06T13:48:53.466Z,11.20
2019-01-06T13:51:56.540Z,17.23
2019-01-06T13:54:48.945Z,16.57
2019-01-06T13:57:51.516Z,12.37
2019-01-06T14:00:53.389Z,10.57
2019-01-06T14:03:43.000Z,10.37
2019-01-06T14:06:45.113Z,9.37
2019-01-06T14:09:40.766Z,10.20
2019-01-06T14:12:29.716Z,11.10
2019-01-06T14:15:18.096Z,10.27
2019-01-06T14:18:10.707Z,10.27
2019-01-06T14:20:58.989Z,9.57
2019-01-06T14:24:00.544Z,11.23
2019-01-06T14:26:48.921Z,11.60
2019-01-06T14:29:38.503Z,11.43
2019-01-06T14:32:39.747Z,17.00
2019-01-06T14:35:38.240Z,12.53
2019-01-06T14:38:33.920Z,13.63
2019-01-06T14:41:26.262Z,14.73
2019-01-06T14:44:18.643Z,14.63
2019-01-06T14:47:06.924Z,13.70
2019-01-06T14:50:08.707Z,13.20
2019-01-06T14:52:56.888Z,14.47
2019-01-06T14:55:45.282Z,20.23
2019-01-06T14:58:33.551Z,21.77
2019-01-06T15:01:21.838Z,21.90
2019-01-06T15:04:11.449Z,17.43
2019-01-06T15:07:03.841Z,14.17
2019-01-06T15:09:52.241Z,15.83
2019-01-06T15:12:40.651Z,14.67
2019-01-06T15:15:39.236Z,14.57
2019-01-06T15:18:39.457Z,16.87
2019-01-06T15:21:31.118Z,17.17
2019-01-06T15:24:19.269Z,23.40
2019-01-06T15:27:07.499Z,17.27
2019-01-06T15:29:59.841Z,16.07
2019-01-06T15:33:07.627Z,14.03
2019-01-06T15:36:00.267Z,15.07
2019-01-06T15:38:53.318Z,15.23
2019-01-06T15:42:01.108Z,14.43
2019-01-06T15:44:56.595Z,15.43
2019-01-06T15:47:55.538Z,16.77
2019-01-06T15:50:39.087Z,20.83
2019-01-06T15:53:22.487Z,16.93
2019-01-06T15:56:18.083Z,16.03
2019-01-06T15:59:13.484Z,16.20
2019-01-06T16:02:03.094Z,15.10
2019-01-06T16:04:58.764Z,17.17
2019-01-06T16:07:47.194Z,18.50
2019-01-06T16:10:51.908Z,19.23
2019-01-06T16:13:40.389Z,20.03
2019-01-06T16:16:27.320Z,19.93
2019-01-06T16:19:15.489Z,18.27
2019-01-06T16:22:00.290Z,19.10
2019-01-06T16:24:45.670Z,19.57
2019-01-06T16:27:38.020Z,19.50
2019-01-06T16:30:33.842Z,19.50
2019-01-06T16:33:22.462Z,20.37
2019-01-06T16:36:17.868Z,19.50
2019-01-06T16:39:06.205Z,19.47
2019-01-06T16:41:56.990Z,21.67
2019-01-06T16:44:46.547Z,33.57
2019-01-06T16:47:48.590Z,26.03
2019-01-06T16:50:47.093Z,26.70
2019-01-06T16:53:51.817Z,22.07
2019-01-06T16:56:56.684Z,19.80
2019-01-06T16:59:44.912Z,23.60
2019-01-06T17:02:37.495Z,23.80
2019-01-06T17:05:33.116Z,23.47
2019-01-06T17:08:18.675Z,21.83
2019-01-06T17:11:14.331Z,23.57
2019-01-06T17:14:12.850Z,23.03
2019-01-06T17:17:07.402Z,23.87
2019-01-06T17:20:06.025Z,23.13
2019-01-06T17:23:08.009Z,21.70
2019-01-06T17:26:13.523Z,22.30
2019-01-06T17:29:02.124Z,22.47
2019-01-06T17:31:50.677Z,24.53
2019-01-06T17:34:40.286Z,25.10
2019-01-06T17:37:38.099Z,25.50
2019-01-06T17:40:17.327Z,26.50
2019-01-06T17:43:03.867Z,26.57
2019-01-06T17:46:11.771Z,26.10
2019-01-06T17:49:00.031Z,25.03
2019-01-06T17:51:55.924Z,25.40
2019-01-06T17:54:51.336Z,23.97
2019-01-06T17:57:39.818Z,24.73
2019-01-06T18:00:35.668Z,25.17
2019-01-06T18:03:28.072Z,27.47
2019-01-06T18:06:23.493Z,25.60
2019-01-06T18:09:11.735Z,24.87
2019-01-06T18:12:16.437Z,25.30
2019-01-06T18:15:04.398Z,25.50
2019-01-06T18:17:52.959Z,24.23
2019-01-06T18:20:51.941Z,23.47
2019-01-06T18:23:40.401Z,24.27
2019-01-06T18:26:33.122Z,24.47
2019-01-06T18:29:18.362Z,23.83
2019-01-06T18:32:07.003Z,24.77
2019-01-06T18:35:05.957Z,25.53
2019-01-06T18:37:54.865Z,30.83
2019-01-06T18:40:43.608Z,22.87
2019-01-06T18:43:31.927Z,24.97
2019-01-06T18:46:16.477Z,24.30
2019-01-06T18:49:15.500Z,24.13
2019-01-06T18:52:03.681Z,24.53
2019-01-06T18:54:56.058Z,23.83
2019-01-06T18:57:46.324Z,22.90
2019-01-06T19:00:26.105Z,21.47
2019-01-06T19:03:18.632Z,21.87
2019-01-06T19:06:01.987Z,21.60
2019-01-06T19:08:50.262Z,22.47
2019-01-06T19:11:42.722Z,22.53
2019-01-06T19:14:32.284Z,22.07
2019-01-06T19:17:20.655Z,22.50
2019-01-06T19:20:08.956Z,20.97
2019-01-06T19:23:17.834Z,23.60
2019-01-06T19:26:03.520Z,24.13
2019-01-06T19:28:51.721Z,25.37
2019-01-06T19:31:40.198Z,24.27
2019-01-06T19:34:35.574Z,23.03
2019-01-06T19:37:22.513Z,25.00
2019-01-06T19:40:10.945Z,26.87
2019-01-06T19:43:15.952Z,25.63
2019-01-06T19:45:59.328Z,24.23
2019-01-06T19:48:48.918Z,26.43
2019-01-06T19:51:48.736Z,25.17
2019-01-06T19:54:44.465Z,27.30
2019-01-06T19:57:46.931Z,29.30
2019-01-06T20:00:30.288Z,29.07
2019-01-06T20:03:28.810Z,28.83
2019-01-06T20:06:26.385Z,26.47
2019-01-06T20:09:22.525Z,27.80
2019-01-06T20:12:15.171Z,27.83
2019-01-06T20:15:20.374Z,26.07
2019-01-06T20:18:15.924Z,28.40
2019-01-06T20:21:04.475Z,28.97
2019-01-06T20:23:54.179Z,28.10
2019-01-06T20:26:42.561Z,30.70
2019-01-06T20:29:33.597Z,31.07
2019-01-06T20:32:28.900Z,29.67
2019-01-06T20:35:30.816Z,28.77
2019-01-06T20:38:23.186Z,33.07
2019-01-06T20:41:28.221Z,25.93
2019-01-06T20:44:16.491Z,29.37
2019-01-06T20:47:16.775Z,31.20
2019-01-06T20:50:04.955Z,32.33
2019-01-06T20:52:53.748Z,31.70
2019-01-06T20:55:45.619Z,31.60
2019-01-06T20:58:35.178Z,33.47
2019-01-06T21:01:23.478Z,32.63
2019-01-06T21:04:19.521Z,29.63
2019-01-06T21:07:12.083Z,33.10
2019-01-06T21:10:04.775Z,30.93
2019-01-06T21:13:02.757Z,31.53
2019-01-06T21:15:55.278Z,31.40
2019-01-06T21:18:42.179Z,31.10
2019-01-06T21:21:37.852Z,31.13
2019-01-06T21:24:19.991Z,30.70
2019-01-06T21:27:08.641Z,31.13
2019-01-06T21:30:07.294Z,30.43
2019-01-06T21:32:54.184Z,28.33
2019-01-06T21:36:01.949Z,29.90
2019-01-06T21:38:54.741Z,29.90
2019-01-06T21:41:43.257Z,28.90
2019-01-06T21:44:42.115Z,29.87
2019-01-06T21:47:33.372Z,31.33
2019-01-06T21:50:21.746Z,29.80
2019-01-06T21:53:11.329Z,30.20
2019-01-06T21:56:05.049Z,30.07
2019-01-06T21:58:57.880Z,30.90
2019-01-06T22:01:46.341Z,30.90
2019-01-06T22:04:48.005Z,31.47
2019-01-06T22:07:37.535Z,30.20
2019-01-06T22:10:27.066Z,30.67
2019-01-06T22:13:10.106Z,31.33
2019-01-06T22:16:17.871Z,29.67
2019-01-06T22:19:05.981Z,29.00
2019-01-06T22:21:54.413Z,28.73
2019-01-06T22:24:46.573Z,30.27
2019-01-06T22:27:35.103Z,30.70
2019-01-06T22:30:32.058Z,29.30
2019-01-06T22:33:30.815Z,28.03
2019-01-06T22:36:21.000Z,27.27
2019-01-06T22:39:19.603Z,29.57
2019-01-06T22:42:26.479Z,29.73
2019-01-06T22:45:14.059Z,30.90
2019-01-06T22:48:02.780Z,31.90
2019-01-06T22:51:01.585Z,32.10
2019-01-06T22:53:51.476Z,29.00
2019-01-06T22:56:39.760Z,31.57
2019-01-06T22:59:31.216Z,30.60
2019-01-06T23:02:19.437Z,30.23
2019-01-06T23:05:08.350Z,29.33
2019-01-06T23:08:02.832Z,28.67
2019-01-06T23:10:52.461Z,25.53
2019-01-06T23:13:36.219Z,27.50
2019-01-06T23:16:28.702Z,23.73
2019-01-06T23:19:36.656Z,27.90
2019-01-06T23:22:24.919Z,27.13
2019-01-06T23:25:26.551Z,27.53
2019-01-06T23:28:22.113Z,29.03
2019-01-06T23:31:18.926Z,30.33
2019-01-06T23:34:07.297Z,28.43
2019-01-06T23:36:59.809Z,29.00
2019-01-06T23:39:58.520Z,30.87
2019-01-06T23:42:46.912Z,28.37
2019-01-06T23:45:35.144Z,30.90
2019-01-06T23:48:27.534Z,29.37
2019-01-06T23:51:17.086Z,32.13
2019-01-06T23:54:18.659Z,30.53
2019-01-06T23:57:14.203Z,32.17
